Freedom Line — 9HA2976 — position and weather

sailwx.info

Track history (hours):
 
Tides and Currents Weather Stations Pressure Air Temp Water Temp Dewpoint Dewpoint Depression Visibility Wind Speed Wind Dir Waves Ship Positions

Freedom Line

Last reported at 2017-Oct-02 04:08 UTC. Time now 2017-Oct-18 20:17 UTC.
Position N 48°30' W 126°46'.
Warning: this ship's position is 16 days out of date.

Length 190 m; draft 12.7 m.

Type: Cargo ship. MMSI: 256991000.

Date/timePositionNaut miles runAvg speedWind from/ knotsBaromVisibWave heightAir tempDewpointWater temp
2017-Oct-02 04:08N 48°30' W 126°46'1 9.9
2017-Oct-02 04:01N 48°30' W 126°44'510.1
2017-Oct-02 03:29N 48°31' W 126°36'510.4
2017-Oct-02 03:00N 48°31' W 126°28'510.1
2017-Oct-02 02:30N 48°31' W 126°21'510.1
2017-Oct-02 02:00N 48°31' W 126°13'5 9.9
2017-Oct-02 01:30N 48°31' W 126°06'510.1
2017-Oct-02 01:01N 48°31' W 125°58'510.5
2017-Oct-02 00:30N 48°30' W 125°50'611.1
2017-Oct-02 00:01N 48°31' W 125°42'510.9
2017-Oct-01 23:31N 48°31' W 125°33'610.7
2017-Oct-01 23:00N 48°31' W 125°25'510.7
2017-Oct-01 22:31N 48°31' W 125°17'510.8
2017-Oct-01 22:00N 48°31' W 125°09'510.8
2017-Oct-01 21:30N 48°31' W 125°01'510.9
2017-Oct-01 21:00N 48°31' W 124°53'510.7
2017-Oct-01 20:30N 48°31' W 124°45'510.2
2017-Oct-01 20:00N 48°29' W 124°37'510.3
2017-Oct-01 19:31N 48°27' W 124°30'510.6
2017-Oct-01 19:01N 48°25' W 124°23'510.5
2017-Oct-01 18:31N 48°23' W 124°16'510.4
2017-Oct-01 18:00N 48°21' W 124°08'510.3
2017-Oct-01 17:30N 48°19' W 124°01'510.6
2017-Oct-01 17:01N 48°17' W 123°54'611.5
2017-Oct-01 16:27N 48°17' W 123°44'512.2
2017-Oct-01 16:00N 48°16' W 123°36'510.8
2017-Oct-01 15:31N 48°18' W 123°29'510.6
2017-Oct-01 15:01N 48°22' W 123°25'4 9.0
2017-Oct-01 14:31N 48°23' W 123°18'510.2
2017-Oct-01 14:01N 48°27' W 123°12'713.6
2017-Oct-01 13:31N 48°33' W 123°13'713.3
2017-Oct-01 13:00N 48°40' W 123°15'510.4
2017-Oct-01 12:30N 48°44' W 123°10'612.1
2017-Oct-01 12:01N 48°47' W 123°02'5 9.9
2017-Oct-01 11:30N 48°51' W 123°04'612.5
2017-Oct-01 11:01N 48°56' W 123°11'612.0
2017-Oct-01 10:30N 48°60' W 123°18'611.6
2017-Oct-01 10:00N 49°04' W 123°24'611.6
2017-Oct-01 09:31N 49°10' W 123°22'611.5
2017-Oct-01 09:01N 49°16' W 123°20'510.2
2017-Oct-01 08:30N 49°19' W 123°15'5 9.3
2017-Oct-01 08:01N 49°19' W 123°08'3 5.5
2017-Oct-01 07:29N 49°18' W 123°03'0 0.1
2017-Oct-01 06:59N 49°18' W 123°03'0 0.0
2017-Oct-01 06:29N 49°18' W 123°03'0 0.0
2017-Oct-01 05:59N 49°18' W 123°03'0 0.0
2017-Oct-01 05:29N 49°18' W 123°03'0 0.0
2017-Oct-01 04:59N 49°18' W 123°03'0 0.0
2017-Oct-01 04:29N 49°18' W 123°03'0 0.0
2017-Oct-01 03:59N 49°18' W 123°03'0 0.0
2017-Oct-01 03:29N 49°18' W 123°03'0 0.0
2017-Oct-01 02:59N 49°18' W 123°03'6 0.2
2017-Sep-30 02:00N 49°17' W 123°12'0 0.1
2017-Sep-30 01:30N 49°17' W 123°12'0 0.0
2017-Sep-30 01:00N 49°17' W 123°12'0 0.0
2017-Sep-30 00:30N 49°17' W 123°12'0 0.0
2017-Sep-30 00:00N 49°17' W 123°12'0 0.0
2017-Sep-29 23:30N 49°17' W 123°12'0 0.0
2017-Sep-29 22:57N 49°17' W 123°12'0 0.1
2017-Sep-29 22:30N 49°17' W 123°12'0 0.0
2017-Sep-29 22:00N 49°17' W 123°12'0 0.0
2017-Sep-29 21:30N 49°17' W 123°12'0 0.0
2017-Sep-29 21:00N 49°17' W 123°12'0 0.0
2017-Sep-29 20:30N 49°17' W 123°12'0 0.0
2017-Sep-29 20:00N 49°17' W 123°12'0 0.0
2017-Sep-29 19:30N 49°17' W 123°12'0 0.0
2017-Sep-29 18:57N 49°17' W 123°12'0 0.0
2017-Sep-29 18:30N 49°17' W 123°12'0 0.0
2017-Sep-29 18:00N 49°17' W 123°12'0 0.0
2017-Sep-29 17:30N 49°17' W 123°12'0 0.0
2017-Sep-29 17:00N 49°17' W 123°12'0 0.0
2017-Sep-29 16:30N 49°17' W 123°12'0 0.2
2017-Sep-29 16:00N 49°17' W 123°12'0 0.2
2017-Sep-29 15:30N 49°17' W 123°12'0 0.0
2017-Sep-29 14:57N 49°17' W 123°12'0 0.1
2017-Sep-29 14:30N 49°17' W 123°11'0 0.0
2017-Sep-29 14:00N 49°17' W 123°11'0 0.0
2017-Sep-29 13:30N 49°17' W 123°11'0 0.1
2017-Sep-29 13:00N 49°17' W 123°11'0 0.1
2017-Sep-29 12:30N 49°17' W 123°11'0 0.1
2017-Sep-29 12:00N 49°17' W 123°11'0 0.1
2017-Sep-29 11:30N 49°17' W 123°11'0 0.0
2017-Sep-29 11:00N 49°17' W 123°11'0 0.0
2017-Sep-29 10:30N 49°17' W 123°11'0 0.1
2017-Sep-29 10:00N 49°17' W 123°12'0 0.2
2017-Sep-29 09:30N 49°17' W 123°12'0 0.1
2017-Sep-29 09:00N 49°17' W 123°12'0 0.0
2017-Sep-29 08:30N 49°17' W 123°12'0 0.0
2017-Sep-29 08:00N 49°17' W 123°12'0 0.0
2017-Sep-29 07:30N 49°17' W 123°12'0 0.0
2017-Sep-29 07:00N 49°17' W 123°12'0 0.0
2017-Sep-29 06:30N 49°17' W 123°12'0 0.1
2017-Sep-29 06:00N 49°17' W 123°12'0 0.0
2017-Sep-29 05:30N 49°17' W 123°12'0 0.0
2017-Sep-29 05:00N 49°17' W 123°12'0 0.0
2017-Sep-29 04:30N 49°17' W 123°12'0 0.1
2017-Sep-29 04:00N 49°17' W 123°12'0 0.0
2017-Sep-29 03:30N 49°17' W 123°12'0 0.0
2017-Sep-29 03:00N 49°17' W 123°12'0 0.0
2017-Sep-29 02:30N 49°17' W 123°12'0 0.1
2017-Sep-29 01:57N 49°17' W 123°12'0 0.1
2017-Sep-29 01:30N 49°17' W 123°12'0 0.1
2017-Sep-29 01:00N 49°17' W 123°12'0 0.1
2017-Sep-29 00:27N 49°17' W 123°12'0 0.1
2017-Sep-29 00:00N 49°17' W 123°12'0 0.2
2017-Sep-28 23:29N 49°17' W 123°12'0 0.1
2017-Sep-28 22:59N 49°17' W 123°11'0 0.1
2017-Sep-28 22:29N 49°17' W 123°11'0 0.1
2017-Sep-28 21:59N 49°17' W 123°11'0 0.1
2017-Sep-28 21:29N 49°17' W 123°12'0 0.1
2017-Sep-28 20:59N 49°17' W 123°12'0 0.1
2017-Sep-28 20:29N 49°17' W 123°12'0 0.0
2017-Sep-28 19:59N 49°17' W 123°12'0 0.1
2017-Sep-28 19:29N 49°17' W 123°12'0 0.1
2017-Sep-28 18:59N 49°17' W 123°12'1 1.9
2017-Sep-28 18:30N 49°18' W 123°11'2 4.7
2017-Sep-28 18:00N 49°18' W 123°07'3 5.6
2017-Sep-28 17:30N 49°18' W 123°03'0 0.4
2017-Sep-28 17:00N 49°18' W 123°03'0 0.0
2017-Sep-28 16:30N 49°18' W 123°03'0 0.0
2017-Sep-28 15:57N 49°18' W 123°03'0 0.0
2017-Sep-28 15:30N 49°18' W 123°03'0 0.0
2017-Sep-28 14:57N 49°18' W 123°03'0 0.0
2017-Sep-28 14:30N 49°18' W 123°03'0 0.0
2017-Sep-28 14:00N 49°18' W 123°03'0 0.0
2017-Sep-28 13:30N 49°18' W 123°03'0 0.0
2017-Sep-28 13:00N 49°18' W 123°03'0 0.0
2017-Sep-28 12:30N 49°18' W 123°03'0 0.0
2017-Sep-28 12:00N 49°18' W 123°03'0 0.0
2017-Sep-28 11:30N 49°18' W 123°03'0 0.0
2017-Sep-28 11:00N 49°18' W 123°03'0 0.0
2017-Sep-28 10:30N 49°18' W 123°03'0 0.0
2017-Sep-28 10:00N 49°18' W 123°03'0 0.0
2017-Sep-28 09:30N 49°18' W 123°03'0 0.0
2017-Sep-28 09:00N 49°18' W 123°03'0 0.0
2017-Sep-28 08:30N 49°18' W 123°03'0 0.0
2017-Sep-28 08:00N 49°18' W 123°03'0 0.0
2017-Sep-28 07:30N 49°18' W 123°03'0 0.0
2017-Sep-28 07:00N 49°18' W 123°03'0 0.0
2017-Sep-28 06:30N 49°18' W 123°03'0 0.0
2017-Sep-28 06:00N 49°18' W 123°03'0 0.0
2017-Sep-28 05:30N 49°18' W 123°03'0 0.0
2017-Sep-28 05:00N 49°18' W 123°03'0 0.0
2017-Sep-28 04:30N 49°18' W 123°03'0 0.0
2017-Sep-28 04:00N 49°18' W 123°03'0 0.0
2017-Sep-28 03:30N 49°18' W 123°03'0 0.0
2017-Sep-28 03:00N 49°18' W 123°03'0 0.0
2017-Sep-28 02:30N 49°18' W 123°03'0 0.0
2017-Sep-28 02:00N 49°18' W 123°03'0 0.0
2017-Sep-28 01:30N 49°18' W 123°03'0 0.0
2017-Sep-28 01:00N 49°18' W 123°03'0 0.0
2017-Sep-28 00:30N 49°18' W 123°03'0 0.0
2017-Sep-28 00:00N 49°18' W 123°03'0 0.0
2017-Sep-27 23:30N 49°18' W 123°03'0 0.0
2017-Sep-27 23:00N 49°18' W 123°03'0 0.0
2017-Sep-27 22:30N 49°18' W 123°03'0 0.0
2017-Sep-27 22:00N 49°18' W 123°03'0 0.0
2017-Sep-27 21:30N 49°18' W 123°03'0 0.0
2017-Sep-27 21:00N 49°18' W 123°03'0 0.0
2017-Sep-27 20:30N 49°18' W 123°03'0 0.0
2017-Sep-27 20:00N 49°18' W 123°03'0 0.0
2017-Sep-27 19:30N 49°18' W 123°03'0 0.0
2017-Sep-27 19:00N 49°18' W 123°03'0 0.0
2017-Sep-27 18:30N 49°18' W 123°03'0 0.0
2017-Sep-27 18:00N 49°18' W 123°03'0 0.0
2017-Sep-27 17:30N 49°18' W 123°03'0 0.0
2017-Sep-27 17:00N 49°18' W 123°03'0 0.0
2017-Sep-27 16:30N 49°18' W 123°03'0 0.0
2017-Sep-27 16:00N 49°18' W 123°03'0 0.0
2017-Sep-27 15:30N 49°18' W 123°03'0 0.0
2017-Sep-27 14:59N 49°18' W 123°03'0 0.0
2017-Sep-27 14:29N 49°18' W 123°03'0 0.0
2017-Sep-27 13:59N 49°18' W 123°03'0 0.0
2017-Sep-27 13:29N 49°18' W 123°03'0 0.0
2017-Sep-27 12:59N 49°18' W 123°03'0 0.0
2017-Sep-27 12:29N 49°18' W 123°03'0 0.0
2017-Sep-27 11:59N 49°18' W 123°03'0 0.0
2017-Sep-27 11:26N 49°18' W 123°03'0 0.0
2017-Sep-27 10:59N 49°18' W 123°03'0 0.0
2017-Sep-27 10:29N 49°18' W 123°03'0 0.0
2017-Sep-27 09:59N 49°18' W 123°03'0 0.0
2017-Sep-27 09:29N 49°18' W 123°03'0 0.0
2017-Sep-27 08:59N 49°18' W 123°03'0 0.0
2017-Sep-27 08:26N 49°18' W 123°03'0 0.0
2017-Sep-27 07:59N 49°18' W 123°03'0 0.0
2017-Sep-27 07:29N 49°18' W 123°03'0 0.0
2017-Sep-27 06:59N 49°18' W 123°03'0 0.0
2017-Sep-27 06:29N 49°18' W 123°03'0 0.0
2017-Sep-27 05:59N 49°18' W 123°03'0 0.0
2017-Sep-27 05:29N 49°18' W 123°03'0 0.0
2017-Sep-27 04:59N 49°18' W 123°03'0 0.0
2017-Sep-27 04:29N 49°18' W 123°03'0 0.0
2017-Sep-27 03:59N 49°18' W 123°03'0 0.0
2017-Sep-27 03:29N 49°18' W 123°03'0 0.0
2017-Sep-27 02:56N 49°18' W 123°03'0 0.0
2017-Sep-27 02:29N 49°18' W 123°03'0 0.0
2017-Sep-27 01:59N 49°18' W 123°03'0 0.0
2017-Sep-27 01:29N 49°18' W 123°03'0 0.0
2017-Sep-27 00:59N 49°18' W 123°03'0 0.0
2017-Sep-27 00:29N 49°18' W 123°03'0 0.0
2017-Sep-26 23:59N 49°18' W 123°03'0 0.0
2017-Sep-26 23:29N 49°18' W 123°03'0 0.0
2017-Sep-26 22:59N 49°18' W 123°03'0 0.0
2017-Sep-26 22:29N 49°18' W 123°03'0 0.0
2017-Sep-26 21:59N 49°18' W 123°03'0 0.0
2017-Sep-26 21:29N 49°18' W 123°03'0 0.0
2017-Sep-26 20:59N 49°18' W 123°03'0 0.0
2017-Sep-26 20:29N 49°18' W 123°03'0 0.0
2017-Sep-26 19:59N 49°18' W 123°03'0 0.0
2017-Sep-26 19:29N 49°18' W 123°03'0 0.0
2017-Sep-26 18:59N 49°18' W 123°03'0 0.0
2017-Sep-26 18:29N 49°18' W 123°03'0 0.0
2017-Sep-26 17:59N 49°18' W 123°03'0 0.0
2017-Sep-26 17:29N 49°18' W 123°03'0 0.0
2017-Sep-26 16:59N 49°18' W 123°03'0 0.0
2017-Sep-26 16:29N 49°18' W 123°03'0 0.0
2017-Sep-26 15:59N 49°18' W 123°03'0 0.0
2017-Sep-26 15:29N 49°18' W 123°03'0 0.0
2017-Sep-26 14:59N 49°18' W 123°03'0 0.0
2017-Sep-26 14:29N 49°18' W 123°03'0 0.0
2017-Sep-26 13:59N 49°18' W 123°03'0 0.0
2017-Sep-26 13:29N 49°18' W 123°03'0 0.0
2017-Sep-26 12:59N 49°18' W 123°03'0 0.0
2017-Sep-26 12:29N 49°18' W 123°03'0 0.0
2017-Sep-26 11:59N 49°18' W 123°03'0 0.0
2017-Sep-26 11:29N 49°18' W 123°03'0 0.0
2017-Sep-26 10:59N 49°18' W 123°03'0 0.0
2017-Sep-26 10:29N 49°18' W 123°03'0 0.0
2017-Sep-26 09:59N 49°18' W 123°03'0 0.0
2017-Sep-26 09:29N 49°18' W 123°03'0 0.0
2017-Sep-26 08:59N 49°18' W 123°03'0 0.0
2017-Sep-26 08:29N 49°18' W 123°03'0 0.0
2017-Sep-26 07:59N 49°18' W 123°03'0 0.0
2017-Sep-26 07:29N 49°18' W 123°03'0 0.0
2017-Sep-26 06:59N 49°18' W 123°03'0 0.0
2017-Sep-26 06:29N 49°18' W 123°03'0 0.0
2017-Sep-26 05:59N 49°18' W 123°03'0 0.0
2017-Sep-26 05:29N 49°18' W 123°03'0 0.0
2017-Sep-26 04:59N 49°18' W 123°03'0 0.0
2017-Sep-26 04:29N 49°18' W 123°03'0 0.0
2017-Sep-26 03:59N 49°18' W 123°03'0 0.0
2017-Sep-26 03:29N 49°18' W 123°03'0 0.0
2017-Sep-26 02:59N 49°18' W 123°03'0 0.0
2017-Sep-26 02:29N 49°18' W 123°03'0 0.0
2017-Sep-26 01:59N 49°18' W 123°03'0 0.0
2017-Sep-26 01:29N 49°18' W 123°03'0 0.0
2017-Sep-26 00:59N 49°18' W 123°03'0 0.0
2017-Sep-26 00:29N 49°18' W 123°03'0 0.0
2017-Sep-25 23:59N 49°18' W 123°03'0 0.0
2017-Sep-25 23:29N 49°18' W 123°03'0 0.0
2017-Sep-25 22:58N 49°18' W 123°03'0 0.0
2017-Sep-25 22:28N 49°18' W 123°03'0 0.0
2017-Sep-25 21:58N 49°18' W 123°03'0 0.0
2017-Sep-25 21:28N 49°18' W 123°03'0 0.0
2017-Sep-25 20:58N 49°18' W 123°03'0 0.0
2017-Sep-25 20:28N 49°18' W 123°03'0 0.0
2017-Sep-25 19:58N 49°18' W 123°03'0 0.0
2017-Sep-25 19:28N 49°18' W 123°03'0 0.0
2017-Sep-25 18:58N 49°18' W 123°03'0 0.0
2017-Sep-25 18:28N 49°18' W 123°03'0 0.0
2017-Sep-25 17:58N 49°18' W 123°03'0 0.0
2017-Sep-25 17:28N 49°18' W 123°03'0 0.0
2017-Sep-25 16:58N 49°18' W 123°03'0 0.0
2017-Sep-25 16:28N 49°18' W 123°03'0 0.0
2017-Sep-25 15:58N 49°18' W 123°03'0 0.0
2017-Sep-25 15:25N 49°18' W 123°03'0 0.0
2017-Sep-25 14:58N 49°18' W 123°03'0 0.0
2017-Sep-25 14:28N 49°18' W 123°03'0 0.0
2017-Sep-25 13:58N 49°18' W 123°03'0 0.0
2017-Sep-25 13:28N 49°18' W 123°03'0 0.0
2017-Sep-25 12:58N 49°18' W 123°03'0 0.0
2017-Sep-25 12:28N 49°18' W 123°03'0 0.0
2017-Sep-25 11:58N 49°18' W 123°03'0 0.0
2017-Sep-25 11:28N 49°18' W 123°03'0 0.0
2017-Sep-25 10:58N 49°18' W 123°03'0 0.0
2017-Sep-25 10:28N 49°18' W 123°03'0 0.0
2017-Sep-25 09:58N 49°18' W 123°03'0 0.0
2017-Sep-25 09:28N 49°18' W 123°03'0 0.0
2017-Sep-25 08:58N 49°18' W 123°03'0 0.0
2017-Sep-25 08:28N 49°18' W 123°03'0 0.0
2017-Sep-25 07:58N 49°18' W 123°03'0 0.0
2017-Sep-25 07:28N 49°18' W 123°03'0 0.0
2017-Sep-25 06:58N 49°18' W 123°03'0 0.0
2017-Sep-25 06:28N 49°18' W 123°03'0 0.0
2017-Sep-25 05:58N 49°18' W 123°03'0 0.0
2017-Sep-25 05:28N 49°18' W 123°03'0 0.0
2017-Sep-25 04:58N 49°18' W 123°03'0 0.0
2017-Sep-25 04:28N 49°18' W 123°03'0 0.0
2017-Sep-25 03:58N 49°18' W 123°03'0 0.0
2017-Sep-25 03:28N 49°18' W 123°03'0 0.0
2017-Sep-25 02:58N 49°18' W 123°03'0 0.0
2017-Sep-25 02:28N 49°18' W 123°03'0 0.0
2017-Sep-25 01:58N 49°18' W 123°03'0 0.0
2017-Sep-25 01:28N 49°18' W 123°03'0 0.0
2017-Sep-25 00:58N 49°18' W 123°03'0 0.0
2017-Sep-25 00:28N 49°18' W 123°03'0 0.0
2017-Sep-24 23:58N 49°18' W 123°03'0 0.0
2017-Sep-24 23:28N 49°18' W 123°03'0 0.0
2017-Sep-24 22:58N 49°18' W 123°03'0 0.1
2017-Sep-24 22:30N 49°18' W 123°03'1 1.4
2017-Sep-24 22:01N 49°18' W 123°04'2 4.1
2017-Sep-24 21:31N 49°18' W 123°07'3 6.1
2017-Sep-24 21:01N 49°18' W 123°12'1 1.3
2017-Sep-24 20:30N 49°17' W 123°11'0 0.2
2017-Sep-24 20:00N 49°17' W 123°11'0 0.2
2017-Sep-24 19:30N 49°17' W 123°11'0 0.1
2017-Sep-24 19:00N 49°17' W 123°11'0 0.0
2017-Sep-24 18:30N 49°17' W 123°11'0 0.0
2017-Sep-24 18:00N 49°17' W 123°11'0 0.1
2017-Sep-24 17:30N 49°18' W 123°11'0 0.0
2017-Sep-24 17:00N 49°18' W 123°11'0 0.1
2017-Sep-24 16:30N 49°18' W 123°11'0 0.0
2017-Sep-24 16:00N 49°18' W 123°11'0 0.1
2017-Sep-24 15:30N 49°18' W 123°11'0 0.1
2017-Sep-24 15:00N 49°18' W 123°11'0 0.0
2017-Sep-24 14:30N 49°18' W 123°11'0 0.0
2017-Sep-24 13:57N 49°18' W 123°11'0 0.0
2017-Sep-24 13:30N 49°18' W 123°11'0 0.1
2017-Sep-24 13:00N 49°18' W 123°11'0 0.0
2017-Sep-24 12:30N 49°18' W 123°11'0 0.1
2017-Sep-24 12:00N 49°18' W 123°11'0 0.2
2017-Sep-24 11:30N 49°18' W 123°11'0 0.1
2017-Sep-24 11:00N 49°17' W 123°11'0 0.0
2017-Sep-24 10:30N 49°17' W 123°11'0 0.0
2017-Sep-24 10:00N 49°17' W 123°11'0 0.0
2017-Sep-24 09:30N 49°17' W 123°11'0 0.1
2017-Sep-24 09:00N 49°17' W 123°11'0 0.0
2017-Sep-24 08:30N 49°17' W 123°11'0 0.0
2017-Sep-24 08:00N 49°17' W 123°11'0 0.2
2017-Sep-24 07:30N 49°17' W 123°11'0 0.2
2017-Sep-24 07:00N 49°17' W 123°11'0 0.1
2017-Sep-24 06:30N 49°17' W 123°11'0 0.0
2017-Sep-24 06:00N 49°17' W 123°11'0 0.0
2017-Sep-24 05:30N 49°17' W 123°11'0 0.0
2017-Sep-24 05:00N 49°17' W 123°11'0 0.0
2017-Sep-24 04:30N 49°18' W 123°11'0 0.0
2017-Sep-24 04:00N 49°18' W 123°11'0 0.1
2017-Sep-24 03:30N 49°18' W 123°11'0 0.0
2017-Sep-24 03:00N 49°18' W 123°11'0 0.0
2017-Sep-24 02:30N 49°18' W 123°11'0 0.1
2017-Sep-24 02:00N 49°18' W 123°11'0 0.0
2017-Sep-24 01:30N 49°18' W 123°11'0 0.0
2017-Sep-24 00:59N 49°18' W 123°11'0 0.1
2017-Sep-24 00:29N 49°18' W 123°11'0 0.1
2017-Sep-23 23:59N 49°18' W 123°11'0 0.1
2017-Sep-23 23:29N 49°18' W 123°11'0 0.1
2017-Sep-23 22:59N 49°17' W 123°11'0 0.0
2017-Sep-23 22:29N 49°17' W 123°11'0 0.0
2017-Sep-23 21:59N 49°17' W 123°11'0 0.0
2017-Sep-23 21:29N 49°17' W 123°11'0 0.1
2017-Sep-23 20:59N 49°17' W 123°11'0 0.0
2017-Sep-23 20:29N 49°17' W 123°11'0 0.0
2017-Sep-23 19:59N 49°17' W 123°11'  
Track history (hours):
 
Tides and Currents Weather Stations Pressure Air Temp Water Temp Dewpoint Dewpoint Depression Visibility Wind Speed Wind Dir Waves Ship Positions

Freedom Line

Last reported at 2017-Oct-02 04:08 UTC. Time now 2017-Oct-18 20:17 UTC.
Position N 48°30' W 126°46'.
Warning: this ship's position is 16 days out of date.

Length 190 m; draft 12.7 m.

Type: Cargo ship. MMSI: 256991000.

Date/timePositionNaut miles runAvg speedWind from/ knotsBaromVisibWave heightAir tempDewpointWater temp
2017-Oct-02 04:08N 48°30' W 126°46'1 9.9
2017-Oct-02 04:01N 48°30' W 126°44'510.1
2017-Oct-02 03:29N 48°31' W 126°36'510.4
2017-Oct-02 03:00N 48°31' W 126°28'510.1
2017-Oct-02 02:30N 48°31' W 126°21'510.1
2017-Oct-02 02:00N 48°31' W 126°13'5 9.9
2017-Oct-02 01:30N 48°31' W 126°06'510.1
2017-Oct-02 01:01N 48°31' W 125°58'510.5
2017-Oct-02 00:30N 48°30' W 125°50'611.1
2017-Oct-02 00:01N 48°31' W 125°42'510.9
2017-Oct-01 23:31N 48°31' W 125°33'610.7
2017-Oct-01 23:00N 48°31' W 125°25'510.7
2017-Oct-01 22:31N 48°31' W 125°17'510.8
2017-Oct-01 22:00N 48°31' W 125°09'510.8
2017-Oct-01 21:30N 48°31' W 125°01'510.9
2017-Oct-01 21:00N 48°31' W 124°53'510.7
2017-Oct-01 20:30N 48°31' W 124°45'510.2
2017-Oct-01 20:00N 48°29' W 124°37'510.3
2017-Oct-01 19:31N 48°27' W 124°30'510.6
2017-Oct-01 19:01N 48°25' W 124°23'510.5
2017-Oct-01 18:31N 48°23' W 124°16'510.4
2017-Oct-01 18:00N 48°21' W 124°08'510.3
2017-Oct-01 17:30N 48°19' W 124°01'510.6
2017-Oct-01 17:01N 48°17' W 123°54'611.5
2017-Oct-01 16:27N 48°17' W 123°44'512.2
2017-Oct-01 16:00N 48°16' W 123°36'510.8
2017-Oct-01 15:31N 48°18' W 123°29'510.6
2017-Oct-01 15:01N 48°22' W 123°25'4 9.0
2017-Oct-01 14:31N 48°23' W 123°18'510.2
2017-Oct-01 14:01N 48°27' W 123°12'713.6
2017-Oct-01 13:31N 48°33' W 123°13'713.3
2017-Oct-01 13:00N 48°40' W 123°15'510.4
2017-Oct-01 12:30N 48°44' W 123°10'612.1
2017-Oct-01 12:01N 48°47' W 123°02'5 9.9
2017-Oct-01 11:30N 48°51' W 123°04'612.5
2017-Oct-01 11:01N 48°56' W 123°11'612.0
2017-Oct-01 10:30N 48°60' W 123°18'611.6
2017-Oct-01 10:00N 49°04' W 123°24'611.6
2017-Oct-01 09:31N 49°10' W 123°22'611.5
2017-Oct-01 09:01N 49°16' W 123°20'510.2
2017-Oct-01 08:30N 49°19' W 123°15'5 9.3
2017-Oct-01 08:01N 49°19' W 123°08'3 5.5
2017-Oct-01 07:29N 49°18' W 123°03'0 0.1
2017-Oct-01 06:59N 49°18' W 123°03'0 0.0
2017-Oct-01 06:29N 49°18' W 123°03'0 0.0
2017-Oct-01 05:59N 49°18' W 123°03'0 0.0
2017-Oct-01 05:29N 49°18' W 123°03'0 0.0
2017-Oct-01 04:59N 49°18' W 123°03'0 0.0
2017-Oct-01 04:29N 49°18' W 123°03'0 0.0
2017-Oct-01 03:59N 49°18' W 123°03'0 0.0
2017-Oct-01 03:29N 49°18' W 123°03'0 0.0
2017-Oct-01 02:59N 49°18' W 123°03'6 0.2
2017-Sep-30 02:00N 49°17' W 123°12'0 0.1
2017-Sep-30 01:30N 49°17' W 123°12'0 0.0
2017-Sep-30 01:00N 49°17' W 123°12'0 0.0
2017-Sep-30 00:30N 49°17' W 123°12'0 0.0
2017-Sep-30 00:00N 49°17' W 123°12'0 0.0
2017-Sep-29 23:30N 49°17' W 123°12'0 0.0
2017-Sep-29 22:57N 49°17' W 123°12'0 0.1
2017-Sep-29 22:30N 49°17' W 123°12'0 0.0
2017-Sep-29 22:00N 49°17' W 123°12'0 0.0
2017-Sep-29 21:30N 49°17' W 123°12'0 0.0
2017-Sep-29 21:00N 49°17' W 123°12'0 0.0
2017-Sep-29 20:30N 49°17' W 123°12'0 0.0
2017-Sep-29 20:00N 49°17' W 123°12'0 0.0
2017-Sep-29 19:30N 49°17' W 123°12'0 0.0
2017-Sep-29 18:57N 49°17' W 123°12'0 0.0
2017-Sep-29 18:30N 49°17' W 123°12'0 0.0
2017-Sep-29 18:00N 49°17' W 123°12'0 0.0
2017-Sep-29 17:30N 49°17' W 123°12'0 0.0
2017-Sep-29 17:00N 49°17' W 123°12'0 0.0
2017-Sep-29 16:30N 49°17' W 123°12'0 0.2
2017-Sep-29 16:00N 49°17' W 123°12'0 0.2
2017-Sep-29 15:30N 49°17' W 123°12'0 0.0
2017-Sep-29 14:57N 49°17' W 123°12'0 0.1
2017-Sep-29 14:30N 49°17' W 123°11'0 0.0
2017-Sep-29 14:00N 49°17' W 123°11'0 0.0
2017-Sep-29 13:30N 49°17' W 123°11'0 0.1
2017-Sep-29 13:00N 49°17' W 123°11'0 0.1
2017-Sep-29 12:30N 49°17' W 123°11'0 0.1
2017-Sep-29 12:00N 49°17' W 123°11'0 0.1
2017-Sep-29 11:30N 49°17' W 123°11'0 0.0
2017-Sep-29 11:00N 49°17' W 123°11'0 0.0
2017-Sep-29 10:30N 49°17' W 123°11'0 0.1
2017-Sep-29 10:00N 49°17' W 123°12'0 0.2
2017-Sep-29 09:30N 49°17' W 123°12'0 0.1
2017-Sep-29 09:00N 49°17' W 123°12'0 0.0
2017-Sep-29 08:30N 49°17' W 123°12'0 0.0
2017-Sep-29 08:00N 49°17' W 123°12'0 0.0
2017-Sep-29 07:30N 49°17' W 123°12'0 0.0
2017-Sep-29 07:00N 49°17' W 123°12'0 0.0
2017-Sep-29 06:30N 49°17' W 123°12'0 0.1
2017-Sep-29 06:00N 49°17' W 123°12'0 0.0
2017-Sep-29 05:30N 49°17' W 123°12'0 0.0
2017-Sep-29 05:00N 49°17' W 123°12'0 0.0
2017-Sep-29 04:30N 49°17' W 123°12'0 0.1
2017-Sep-29 04:00N 49°17' W 123°12'0 0.0
2017-Sep-29 03:30N 49°17' W 123°12'0 0.0
2017-Sep-29 03:00N 49°17' W 123°12'0 0.0
2017-Sep-29 02:30N 49°17' W 123°12'0 0.1
2017-Sep-29 01:57N 49°17' W 123°12'0 0.1
2017-Sep-29 01:30N 49°17' W 123°12'0 0.1
2017-Sep-29 01:00N 49°17' W 123°12'0 0.1
2017-Sep-29 00:27N 49°17' W 123°12'0 0.1
2017-Sep-29 00:00N 49°17' W 123°12'0 0.2
2017-Sep-28 23:29N 49°17' W 123°12'0 0.1
2017-Sep-28 22:59N 49°17' W 123°11'0 0.1
2017-Sep-28 22:29N 49°17' W 123°11'0 0.1
2017-Sep-28 21:59N 49°17' W 123°11'0 0.1
2017-Sep-28 21:29N 49°17' W 123°12'0 0.1
2017-Sep-28 20:59N 49°17' W 123°12'0 0.1
2017-Sep-28 20:29N 49°17' W 123°12'0 0.0
2017-Sep-28 19:59N 49°17' W 123°12'0 0.1
2017-Sep-28 19:29N 49°17' W 123°12'0 0.1
2017-Sep-28 18:59N 49°17' W 123°12'1 1.9
2017-Sep-28 18:30N 49°18' W 123°11'2 4.7
2017-Sep-28 18:00N 49°18' W 123°07'3 5.6
2017-Sep-28 17:30N 49°18' W 123°03'0 0.4
2017-Sep-28 17:00N 49°18' W 123°03'0 0.0
2017-Sep-28 16:30N 49°18' W 123°03'0 0.0
2017-Sep-28 15:57N 49°18' W 123°03'0 0.0
2017-Sep-28 15:30N 49°18' W 123°03'0 0.0
2017-Sep-28 14:57N 49°18' W 123°03'0 0.0
2017-Sep-28 14:30N 49°18' W 123°03'0 0.0
2017-Sep-28 14:00N 49°18' W 123°03'0 0.0
2017-Sep-28 13:30N 49°18' W 123°03'0 0.0
2017-Sep-28 13:00N 49°18' W 123°03'0 0.0
2017-Sep-28 12:30N 49°18' W 123°03'0 0.0
2017-Sep-28 12:00N 49°18' W 123°03'0 0.0
2017-Sep-28 11:30N 49°18' W 123°03'0 0.0
2017-Sep-28 11:00N 49°18' W 123°03'0 0.0
2017-Sep-28 10:30N 49°18' W 123°03'0 0.0
2017-Sep-28 10:00N 49°18' W 123°03'0 0.0
2017-Sep-28 09:30N 49°18' W 123°03'0 0.0
2017-Sep-28 09:00N 49°18' W 123°03'0 0.0
2017-Sep-28 08:30N 49°18' W 123°03'0 0.0
2017-Sep-28 08:00N 49°18' W 123°03'0 0.0
2017-Sep-28 07:30N 49°18' W 123°03'0 0.0
2017-Sep-28 07:00N 49°18' W 123°03'0 0.0
2017-Sep-28 06:30N 49°18' W 123°03'0 0.0
2017-Sep-28 06:00N 49°18' W 123°03'0 0.0
2017-Sep-28 05:30N 49°18' W 123°03'0 0.0
2017-Sep-28 05:00N 49°18' W 123°03'0 0.0
2017-Sep-28 04:30N 49°18' W 123°03'0 0.0
2017-Sep-28 04:00N 49°18' W 123°03'0 0.0
2017-Sep-28 03:30N 49°18' W 123°03'0 0.0
2017-Sep-28 03:00N 49°18' W 123°03'0 0.0
2017-Sep-28 02:30N 49°18' W 123°03'0 0.0
2017-Sep-28 02:00N 49°18' W 123°03'0 0.0
2017-Sep-28 01:30N 49°18' W 123°03'0 0.0
2017-Sep-28 01:00N 49°18' W 123°03'0 0.0
2017-Sep-28 00:30N 49°18' W 123°03'0 0.0
2017-Sep-28 00:00N 49°18' W 123°03'0 0.0
2017-Sep-27 23:30N 49°18' W 123°03'0 0.0
2017-Sep-27 23:00N 49°18' W 123°03'0 0.0
2017-Sep-27 22:30N 49°18' W 123°03'0 0.0
2017-Sep-27 22:00N 49°18' W 123°03'0 0.0
2017-Sep-27 21:30N 49°18' W 123°03'0 0.0
2017-Sep-27 21:00N 49°18' W 123°03'0 0.0
2017-Sep-27 20:30N 49°18' W 123°03'0 0.0
2017-Sep-27 20:00N 49°18' W 123°03'0 0.0
2017-Sep-27 19:30N 49°18' W 123°03'0 0.0
2017-Sep-27 19:00N 49°18' W 123°03'0 0.0
2017-Sep-27 18:30N 49°18' W 123°03'0 0.0
2017-Sep-27 18:00N 49°18' W 123°03'0 0.0
2017-Sep-27 17:30N 49°18' W 123°03'0 0.0
2017-Sep-27 17:00N 49°18' W 123°03'0 0.0
2017-Sep-27 16:30N 49°18' W 123°03'0 0.0
2017-Sep-27 16:00N 49°18' W 123°03'0 0.0
2017-Sep-27 15:30N 49°18' W 123°03'0 0.0
2017-Sep-27 14:59N 49°18' W 123°03'0 0.0
2017-Sep-27 14:29N 49°18' W 123°03'0 0.0
2017-Sep-27 13:59N 49°18' W 123°03'0 0.0
2017-Sep-27 13:29N 49°18' W 123°03'0 0.0
2017-Sep-27 12:59N 49°18' W 123°03'0 0.0
2017-Sep-27 12:29N 49°18' W 123°03'0 0.0
2017-Sep-27 11:59N 49°18' W 123°03'0 0.0
2017-Sep-27 11:26N 49°18' W 123°03'0 0.0
2017-Sep-27 10:59N 49°18' W 123°03'0 0.0
2017-Sep-27 10:29N 49°18' W 123°03'0 0.0
2017-Sep-27 09:59N 49°18' W 123°03'0 0.0
2017-Sep-27 09:29N 49°18' W 123°03'0 0.0
2017-Sep-27 08:59N 49°18' W 123°03'0 0.0
2017-Sep-27 08:26N 49°18' W 123°03'0 0.0
2017-Sep-27 07:59N 49°18' W 123°03'0 0.0
2017-Sep-27 07:29N 49°18' W 123°03'0 0.0
2017-Sep-27 06:59N 49°18' W 123°03'0 0.0
2017-Sep-27 06:29N 49°18' W 123°03'0 0.0
2017-Sep-27 05:59N 49°18' W 123°03'0 0.0
2017-Sep-27 05:29N 49°18' W 123°03'0 0.0
2017-Sep-27 04:59N 49°18' W 123°03'0 0.0
2017-Sep-27 04:29N 49°18' W 123°03'0 0.0
2017-Sep-27 03:59N 49°18' W 123°03'0 0.0
2017-Sep-27 03:29N 49°18' W 123°03'0 0.0
2017-Sep-27 02:56N 49°18' W 123°03'0 0.0
2017-Sep-27 02:29N 49°18' W 123°03'0 0.0
2017-Sep-27 01:59N 49°18' W 123°03'0 0.0
2017-Sep-27 01:29N 49°18' W 123°03'0 0.0
2017-Sep-27 00:59N 49°18' W 123°03'0 0.0
2017-Sep-27 00:29N 49°18' W 123°03'0 0.0
2017-Sep-26 23:59N 49°18' W 123°03'0 0.0
2017-Sep-26 23:29N 49°18' W 123°03'0 0.0
2017-Sep-26 22:59N 49°18' W 123°03'0 0.0
2017-Sep-26 22:29N 49°18' W 123°03'0 0.0
2017-Sep-26 21:59N 49°18' W 123°03'0 0.0
2017-Sep-26 21:29N 49°18' W 123°03'0 0.0
2017-Sep-26 20:59N 49°18' W 123°03'0 0.0
2017-Sep-26 20:29N 49°18' W 123°03'0 0.0
2017-Sep-26 19:59N 49°18' W 123°03'0 0.0
2017-Sep-26 19:29N 49°18' W 123°03'0 0.0
2017-Sep-26 18:59N 49°18' W 123°03'0 0.0
2017-Sep-26 18:29N 49°18' W 123°03'0 0.0
2017-Sep-26 17:59N 49°18' W 123°03'0 0.0
2017-Sep-26 17:29N 49°18' W 123°03'0 0.0
2017-Sep-26 16:59N 49°18' W 123°03'0 0.0
2017-Sep-26 16:29N 49°18' W 123°03'0 0.0
2017-Sep-26 15:59N 49°18' W 123°03'0 0.0
2017-Sep-26 15:29N 49°18' W 123°03'0 0.0
2017-Sep-26 14:59N 49°18' W 123°03'0 0.0
2017-Sep-26 14:29N 49°18' W 123°03'0 0.0
2017-Sep-26 13:59N 49°18' W 123°03'0 0.0
2017-Sep-26 13:29N 49°18' W 123°03'0 0.0
2017-Sep-26 12:59N 49°18' W 123°03'0 0.0
2017-Sep-26 12:29N 49°18' W 123°03'0 0.0
2017-Sep-26 11:59N 49°18' W 123°03'0 0.0
2017-Sep-26 11:29N 49°18' W 123°03'0 0.0
2017-Sep-26 10:59N 49°18' W 123°03'0 0.0
2017-Sep-26 10:29N 49°18' W 123°03'0 0.0
2017-Sep-26 09:59N 49°18' W 123°03'0 0.0
2017-Sep-26 09:29N 49°18' W 123°03'0 0.0
2017-Sep-26 08:59N 49°18' W 123°03'0 0.0
2017-Sep-26 08:29N 49°18' W 123°03'0 0.0
2017-Sep-26 07:59N 49°18' W 123°03'0 0.0
2017-Sep-26 07:29N 49°18' W 123°03'0 0.0
2017-Sep-26 06:59N 49°18' W 123°03'0 0.0
2017-Sep-26 06:29N 49°18' W 123°03'0 0.0
2017-Sep-26 05:59N 49°18' W 123°03'0 0.0
2017-Sep-26 05:29N 49°18' W 123°03'0 0.0
2017-Sep-26 04:59N 49°18' W 123°03'0 0.0
2017-Sep-26 04:29N 49°18' W 123°03'0 0.0
2017-Sep-26 03:59N 49°18' W 123°03'0 0.0
2017-Sep-26 03:29N 49°18' W 123°03'0 0.0
2017-Sep-26 02:59N 49°18' W 123°03'0 0.0
2017-Sep-26 02:29N 49°18' W 123°03'0 0.0
2017-Sep-26 01:59N 49°18' W 123°03'0 0.0
2017-Sep-26 01:29N 49°18' W 123°03'0 0.0
2017-Sep-26 00:59N 49°18' W 123°03'0 0.0
2017-Sep-26 00:29N 49°18' W 123°03'0 0.0
2017-Sep-25 23:59N 49°18' W 123°03'0 0.0
2017-Sep-25 23:29N 49°18' W 123°03'0 0.0
2017-Sep-25 22:58N 49°18' W 123°03'0 0.0
2017-Sep-25 22:28N 49°18' W 123°03'0 0.0
2017-Sep-25 21:58N 49°18' W 123°03'0 0.0
2017-Sep-25 21:28N 49°18' W 123°03'0 0.0
2017-Sep-25 20:58N 49°18' W 123°03'0 0.0
2017-Sep-25 20:28N 49°18' W 123°03'0 0.0
2017-Sep-25 19:58N 49°18' W 123°03'0 0.0
2017-Sep-25 19:28N 49°18' W 123°03'0 0.0
2017-Sep-25 18:58N 49°18' W 123°03'0 0.0
2017-Sep-25 18:28N 49°18' W 123°03'0 0.0
2017-Sep-25 17:58N 49°18' W 123°03'0 0.0
2017-Sep-25 17:28N 49°18' W 123°03'0 0.0
2017-Sep-25 16:58N 49°18' W 123°03'0 0.0
2017-Sep-25 16:28N 49°18' W 123°03'0 0.0
2017-Sep-25 15:58N 49°18' W 123°03'0 0.0
2017-Sep-25 15:25N 49°18' W 123°03'0 0.0
2017-Sep-25 14:58N 49°18' W 123°03'0 0.0
2017-Sep-25 14:28N 49°18' W 123°03'0 0.0
2017-Sep-25 13:58N 49°18' W 123°03'0 0.0
2017-Sep-25 13:28N 49°18' W 123°03'0 0.0
2017-Sep-25 12:58N 49°18' W 123°03'0 0.0
2017-Sep-25 12:28N 49°18' W 123°03'0 0.0
2017-Sep-25 11:58N 49°18' W 123°03'0 0.0
2017-Sep-25 11:28N 49°18' W 123°03'0 0.0
2017-Sep-25 10:58N 49°18' W 123°03'0 0.0
2017-Sep-25 10:28N 49°18' W 123°03'0 0.0
2017-Sep-25 09:58N 49°18' W 123°03'0 0.0
2017-Sep-25 09:28N 49°18' W 123°03'0 0.0
2017-Sep-25 08:58N 49°18' W 123°03'0 0.0
2017-Sep-25 08:28N 49°18' W 123°03'0 0.0
2017-Sep-25 07:58N 49°18' W 123°03'0 0.0
2017-Sep-25 07:28N 49°18' W 123°03'0 0.0
2017-Sep-25 06:58N 49°18' W 123°03'0 0.0
2017-Sep-25 06:28N 49°18' W 123°03'0 0.0
2017-Sep-25 05:58N 49°18' W 123°03'0 0.0
2017-Sep-25 05:28N 49°18' W 123°03'0 0.0
2017-Sep-25 04:58N 49°18' W 123°03'0 0.0
2017-Sep-25 04:28N 49°18' W 123°03'0 0.0
2017-Sep-25 03:58N 49°18' W 123°03'0 0.0
2017-Sep-25 03:28N 49°18' W 123°03'0 0.0
2017-Sep-25 02:58N 49°18' W 123°03'0 0.0
2017-Sep-25 02:28N 49°18' W 123°03'0 0.0
2017-Sep-25 01:58N 49°18' W 123°03'0 0.0
2017-Sep-25 01:28N 49°18' W 123°03'0 0.0
2017-Sep-25 00:58N 49°18' W 123°03'0 0.0
2017-Sep-25 00:28N 49°18' W 123°03'0 0.0
2017-Sep-24 23:58N 49°18' W 123°03'0 0.0
2017-Sep-24 23:28N 49°18' W 123°03'0 0.0
2017-Sep-24 22:58N 49°18' W 123°03'0 0.1
2017-Sep-24 22:30N 49°18' W 123°03'1 1.4
2017-Sep-24 22:01N 49°18' W 123°04'2 4.1
2017-Sep-24 21:31N 49°18' W 123°07'3 6.1
2017-Sep-24 21:01N 49°18' W 123°12'1 1.3
2017-Sep-24 20:30N 49°17' W 123°11'0 0.2
2017-Sep-24 20:00N 49°17' W 123°11'0 0.2
2017-Sep-24 19:30N 49°17' W 123°11'0 0.1
2017-Sep-24 19:00N 49°17' W 123°11'0 0.0
2017-Sep-24 18:30N 49°17' W 123°11'0 0.0
2017-Sep-24 18:00N 49°17' W 123°11'0 0.1
2017-Sep-24 17:30N 49°18' W 123°11'0 0.0
2017-Sep-24 17:00N 49°18' W 123°11'0 0.1
2017-Sep-24 16:30N 49°18' W 123°11'0 0.0
2017-Sep-24 16:00N 49°18' W 123°11'0 0.1
2017-Sep-24 15:30N 49°18' W 123°11'0 0.1
2017-Sep-24 15:00N 49°18' W 123°11'0 0.0
2017-Sep-24 14:30N 49°18' W 123°11'0 0.0
2017-Sep-24 13:57N 49°18' W 123°11'0 0.0
2017-Sep-24 13:30N 49°18' W 123°11'0 0.1
2017-Sep-24 13:00N 49°18' W 123°11'0 0.0
2017-Sep-24 12:30N 49°18' W 123°11'0 0.1
2017-Sep-24 12:00N 49°18' W 123°11'0 0.2
2017-Sep-24 11:30N 49°18' W 123°11'0 0.1
2017-Sep-24 11:00N 49°17' W 123°11'0 0.0
2017-Sep-24 10:30N 49°17' W 123°11'0 0.0
2017-Sep-24 10:00N 49°17' W 123°11'0 0.0
2017-Sep-24 09:30N 49°17' W 123°11'0 0.1
2017-Sep-24 09:00N 49°17' W 123°11'0 0.0
2017-Sep-24 08:30N 49°17' W 123°11'0 0.0
2017-Sep-24 08:00N 49°17' W 123°11'0 0.2
2017-Sep-24 07:30N 49°17' W 123°11'0 0.2
2017-Sep-24 07:00N 49°17' W 123°11'0 0.1
2017-Sep-24 06:30N 49°17' W 123°11'0 0.0
2017-Sep-24 06:00N 49°17' W 123°11'0 0.0
2017-Sep-24 05:30N 49°17' W 123°11'0 0.0
2017-Sep-24 05:00N 49°17' W 123°11'0 0.0
2017-Sep-24 04:30N 49°18' W 123°11'0 0.0
2017-Sep-24 04:00N 49°18' W 123°11'0 0.1
2017-Sep-24 03:30N 49°18' W 123°11'0 0.0
2017-Sep-24 03:00N 49°18' W 123°11'0 0.0
2017-Sep-24 02:30N 49°18' W 123°11'0 0.1
2017-Sep-24 02:00N 49°18' W 123°11'0 0.0
2017-Sep-24 01:30N 49°18' W 123°11'0 0.0
2017-Sep-24 00:59N 49°18' W 123°11'0 0.1
2017-Sep-24 00:29N 49°18' W 123°11'0 0.1
2017-Sep-23 23:59N 49°18' W 123°11'0 0.1
2017-Sep-23 23:29N 49°18' W 123°11'0 0.1
2017-Sep-23 22:59N 49°17' W 123°11'0 0.0
2017-Sep-23 22:29N 49°17' W 123°11'0 0.0
2017-Sep-23 21:59N 49°17' W 123°11'0 0.0
2017-Sep-23 21:29N 49°17' W 123°11'0 0.1
2017-Sep-23 20:59N 49°17' W 123°11'0 0.0
2017-Sep-23 20:29N 49°17' W 123°11'0 0.0
2017-Sep-23 19:59N 49°17' W 123°11'  

Dump ship's entire track history